createdAt,value
2018-06-22T00:01:48.784Z,91.30
2018-06-22T00:04:16.941Z,91.30
2018-06-22T00:06:45.153Z,91.30
2018-06-22T00:09:13.312Z,91.30
2018-06-22T00:11:41.512Z,91.30
2018-06-22T00:14:09.795Z,91.40
2018-06-22T00:16:38.347Z,91.50
2018-06-22T00:19:06.512Z,91.50
2018-06-22T00:21:34.892Z,91.70
2018-06-22T00:24:03.046Z,91.80
2018-06-22T00:26:31.260Z,91.90
2018-06-22T00:28:59.417Z,91.90
2018-06-22T00:31:27.724Z,92.10
2018-06-22T00:38:51.777Z,92.40
2018-06-22T00:41:20.471Z,92.50
2018-06-22T00:43:49.273Z,92.50
2018-06-22T00:46:17.495Z,92.70
2018-06-22T00:48:45.800Z,92.70
2018-06-22T00:51:13.941Z,93.00
2018-06-22T00:56:15.614Z,92.90
2018-06-22T01:01:11.815Z,93.00
2018-06-22T01:03:39.956Z,92.90
2018-06-22T01:06:08.113Z,93.00
2018-06-22T01:08:36.275Z,92.90
2018-06-22T01:11:04.468Z,93.00
2018-06-22T01:13:32.649Z,93.00
2018-06-22T01:16:00.898Z,93.30
2018-06-22T01:18:29.141Z,93.10
2018-06-22T01:20:57.291Z,93.10
2018-06-22T01:23:25.504Z,93.00
2018-06-22T01:25:53.737Z,93.10
2018-06-22T01:28:21.900Z,93.20
2018-06-22T01:30:50.058Z,93.10
2018-06-22T01:33:18.216Z,93.00
2018-06-22T01:35:46.371Z,93.20
2018-06-22T01:38:14.562Z,93.00
2018-06-22T01:40:42.713Z,93.10
2018-06-22T01:43:10.888Z,93.00
2018-06-22T01:45:39.084Z,92.80
2018-06-22T01:48:07.383Z,93.10
2018-06-22T01:50:35.533Z,93.10
2018-06-22T01:53:03.717Z,93.10
2018-06-22T01:55:31.897Z,93.00
2018-06-22T01:58:01.047Z,93.40
2018-06-22T02:02:57.127Z,93.30
2018-06-22T02:05:25.284Z,93.00
2018-06-22T02:07:53.487Z,93.00
2018-06-22T02:10:21.794Z,93.10
2018-06-22T02:12:49.969Z,93.00
2018-06-22T02:15:18.180Z,93.00
2018-06-22T02:17:46.895Z,92.90
2018-06-22T02:20:15.098Z,92.90
2018-06-22T02:22:43.445Z,93.00
2018-06-22T02:25:11.708Z,93.00
2018-06-22T02:27:39.852Z,93.10
2018-06-22T02:30:08.009Z,93.20
2018-06-22T02:32:36.190Z,93.20
2018-06-22T02:35:04.385Z,93.50
2018-06-22T02:37:32.560Z,93.30
2018-06-22T02:40:00.756Z,93.30
2018-06-22T02:42:28.862Z,93.30
2018-06-22T02:44:57.030Z,93.40
2018-06-22T02:47:25.268Z,93.50
2018-06-22T02:49:53.521Z,93.50
2018-06-22T02:52:21.686Z,93.70
2018-06-22T02:54:49.854Z,93.60
2018-06-22T02:57:18.612Z,94.10
2018-06-22T02:59:46.809Z,93.70
2018-06-22T03:02:14.988Z,94.20
2018-06-22T03:04:43.248Z,94.10
2018-06-22T03:07:11.423Z,93.90
2018-06-22T03:09:39.608Z,94.00
2018-06-22T03:12:07.840Z,94.10
2018-06-22T03:14:36.000Z,94.20
2018-06-22T03:17:04.217Z,94.10
2018-06-22T03:19:32.364Z,94.30
2018-06-22T03:22:00.517Z,94.60
2018-06-22T03:24:28.735Z,94.30
2018-06-22T03:26:56.988Z,94.30
2018-06-22T03:29:25.168Z,94.40
2018-06-22T03:31:53.490Z,94.40
2018-06-22T03:34:21.549Z,94.40
2018-06-22T03:36:49.773Z,94.40
2018-06-22T03:39:18.025Z,94.50
2018-06-22T03:41:46.200Z,94.40
2018-06-22T03:44:14.340Z,94.50
2018-06-22T03:46:42.491Z,94.60
2018-06-22T03:49:10.669Z,94.50
2018-06-22T03:51:38.848Z,94.50
2018-06-22T03:54:07.088Z,94.50
2018-06-22T03:59:27.635Z,94.60
2018-06-22T04:01:57.020Z,94.60
2018-06-22T04:04:25.278Z,95.10
2018-06-22T04:06:53.647Z,94.70
2018-06-22T04:09:21.772Z,94.70
2018-06-22T04:11:49.985Z,94.70
2018-06-22T04:14:18.190Z,94.70
2018-06-22T04:16:46.421Z,94.80
2018-06-22T04:19:14.563Z,94.70
2018-06-22T04:24:14.672Z,94.90
2018-06-22T04:26:43.122Z,94.80
2018-06-22T04:29:13.340Z,94.80
2018-06-22T04:31:41.560Z,95.10
2018-06-22T04:34:09.759Z,94.80
2018-06-22T04:36:37.969Z,94.80
2018-06-22T04:39:07.880Z,94.90
2018-06-22T04:41:36.239Z,94.70
2018-06-22T04:44:04.773Z,94.70
2018-06-22T04:46:32.960Z,94.80
2018-06-22T04:49:01.131Z,94.80
2018-06-22T04:51:29.916Z,94.80
2018-06-22T04:53:58.086Z,94.80
2018-06-22T04:56:26.268Z,94.70
2018-06-22T04:58:54.460Z,94.70
2018-06-22T05:01:22.593Z,94.60
2018-06-22T05:03:50.784Z,94.50
2018-06-22T05:06:19.045Z,94.40
2018-06-22T05:08:47.251Z,94.20
2018-06-22T05:11:15.516Z,94.10
2018-06-22T05:13:43.649Z,93.90
2018-06-22T05:16:11.852Z,93.90
2018-06-22T05:18:39.996Z,93.90
2018-06-22T05:21:08.168Z,93.80
2018-06-22T05:23:36.363Z,93.60
2018-06-22T05:26:04.750Z,93.70
2018-06-22T05:28:33.053Z,93.50
2018-06-22T05:31:02.172Z,93.50
2018-06-22T05:33:30.326Z,93.30
2018-06-22T05:35:58.692Z,93.30
2018-06-22T05:38:26.885Z,93.20
2018-06-22T05:40:55.026Z,93.20
2018-06-22T05:43:24.796Z,93.10
2018-06-22T05:45:53.024Z,93.10
2018-06-22T05:48:21.182Z,93.00
2018-06-22T05:50:49.363Z,93.00
2018-06-22T05:53:17.492Z,92.90
2018-06-22T05:55:45.647Z,92.80
2018-06-22T05:58:13.897Z,92.70
2018-06-22T06:00:42.050Z,92.70
2018-06-22T06:05:38.181Z,92.40
2018-06-22T06:08:06.439Z,92.40
2018-06-22T06:10:34.797Z,92.30
2018-06-22T06:13:03.167Z,92.30
2018-06-22T06:15:31.317Z,92.40
2018-06-22T06:18:00.169Z,92.40
2018-06-22T06:20:28.332Z,92.30
2018-06-22T06:22:56.577Z,92.30
2018-06-22T06:25:24.804Z,92.20
2018-06-22T06:27:52.952Z,92.20
2018-06-22T06:30:21.193Z,92.30
2018-06-22T06:32:49.351Z,91.90
2018-06-22T06:35:17.506Z,91.80
2018-06-22T06:37:45.857Z,91.70
2018-06-22T06:40:14.009Z,91.70
2018-06-22T06:42:42.175Z,91.40
2018-06-22T06:45:10.360Z,91.70
2018-06-22T06:47:38.531Z,91.30
2018-06-22T06:50:06.704Z,91.10
2018-06-22T06:52:34.962Z,91.00
2018-06-22T06:55:03.128Z,90.90
2018-06-22T06:57:31.300Z,90.30
2018-06-22T06:59:59.520Z,90.30
2018-06-22T07:02:27.680Z,90.30
2018-06-22T07:04:55.848Z,90.00
2018-06-22T07:07:24.005Z,89.70
2018-06-22T07:09:52.269Z,89.20
2018-06-22T07:12:20.462Z,88.60
2018-06-22T07:14:48.637Z,89.10
2018-06-22T07:17:16.863Z,89.10
2018-06-22T07:19:44.969Z,87.80
2018-06-22T07:22:13.184Z,87.20
2018-06-22T07:24:41.417Z,86.80
2018-06-22T07:27:09.534Z,87.00
2018-06-22T07:29:37.740Z,86.30
2018-06-22T07:32:05.982Z,85.50
2018-06-22T07:34:34.192Z,86.00
2018-06-22T07:37:02.449Z,86.30
2018-06-22T07:39:30.601Z,85.60
2018-06-22T07:41:58.742Z,86.10
2018-06-22T07:44:26.950Z,85.60
2018-06-22T07:46:55.097Z,84.10
2018-06-22T07:49:23.252Z,83.10
2018-06-22T07:51:51.454Z,82.40
2018-06-22T07:54:19.621Z,81.40
2018-06-22T07:56:47.760Z,80.30
2018-06-22T07:59:15.951Z,79.90
2018-06-22T08:01:44.111Z,77.20
2018-06-22T08:04:12.275Z,74.80
2018-06-22T08:06:40.408Z,73.40
2018-06-22T08:09:08.939Z,72.90
2018-06-22T08:11:37.125Z,73.60
2018-06-22T08:14:05.401Z,73.30
2018-06-22T08:16:33.592Z,73.10
2018-06-22T08:19:01.740Z,73.60
2018-06-22T08:21:29.892Z,74.00
2018-06-22T08:23:58.069Z,75.40
2018-06-22T08:26:26.292Z,77.60
2018-06-22T08:28:54.544Z,79.50
2018-06-22T08:31:22.684Z,80.40
2018-06-22T08:33:50.831Z,81.40
2018-06-22T08:36:19.017Z,81.70
2018-06-22T08:38:47.165Z,81.90
2018-06-22T08:41:15.327Z,81.40
2018-06-22T08:43:43.509Z,79.80
2018-06-22T08:46:11.679Z,80.20
2018-06-22T08:51:08.756Z,79.50
2018-06-22T08:53:36.952Z,79.10
2018-06-22T08:56:05.125Z,79.30
2018-06-22T08:58:33.269Z,79.80
2018-06-22T09:01:01.496Z,79.80
2018-06-22T09:03:29.647Z,78.70
2018-06-22T09:05:57.797Z,78.00
2018-06-22T09:08:25.943Z,77.10
2018-06-22T09:10:54.132Z,76.20
2018-06-22T09:13:22.296Z,74.90
2018-06-22T09:18:18.432Z,74.60
2018-06-22T09:20:46.669Z,73.00
2018-06-22T09:23:14.822Z,71.30
2018-06-22T09:25:42.981Z,70.70
2018-06-22T09:28:11.125Z,70.50
2018-06-22T09:30:39.331Z,70.10
2018-06-22T09:33:07.499Z,71.10
2018-06-22T09:35:35.758Z,70.10
2018-06-22T09:38:03.905Z,70.10
2018-06-22T09:40:32.061Z,71.00
2018-06-22T09:43:00.438Z,71.50
2018-06-22T09:45:28.432Z,71.60
2018-06-22T09:47:56.576Z,71.50
2018-06-22T09:50:24.744Z,71.40
2018-06-22T09:52:53.037Z,70.60
2018-06-22T09:55:21.196Z,70.30
2018-06-22T09:57:49.346Z,69.60
2018-06-22T10:00:18.754Z,69.30
2018-06-22T10:02:47.449Z,70.20
2018-06-22T10:05:15.598Z,70.40
2018-06-22T10:07:44.063Z,70.80
2018-06-22T10:10:12.265Z,69.80
2018-06-22T10:12:40.404Z,70.50
2018-06-22T10:15:08.552Z,70.50
2018-06-22T10:17:36.758Z,71.30
2018-06-22T10:20:04.901Z,70.60
2018-06-22T10:22:33.045Z,70.70
2018-06-22T10:25:01.248Z,70.20
2018-06-22T10:27:29.440Z,69.20
2018-06-22T10:29:57.792Z,69.10
2018-06-22T10:32:25.988Z,69.70
2018-06-22T10:34:54.125Z,70.20
2018-06-22T10:37:22.333Z,69.90
2018-06-22T10:39:50.494Z,71.10
2018-06-22T10:42:18.735Z,70.80
2018-06-22T10:44:46.893Z,70.70
2018-06-22T10:47:15.052Z,70.50
2018-06-22T10:49:43.211Z,70.80
2018-06-22T10:52:11.373Z,70.60
2018-06-22T10:54:39.627Z,69.10
2018-06-22T10:57:07.848Z,67.90
2018-06-22T10:59:36.019Z,67.90
2018-06-22T11:02:04.127Z,67.30
2018-06-22T11:04:32.364Z,67.90
2018-06-22T11:07:00.500Z,67.70
2018-06-22T11:09:28.643Z,66.90
2018-06-22T11:11:57.208Z,66.70
2018-06-22T11:14:25.390Z,67.10
2018-06-22T11:16:53.559Z,66.90
2018-06-22T11:19:21.685Z,66.50
2018-06-22T11:21:49.819Z,66.70
2018-06-22T11:24:18.042Z,67.20
2018-06-22T11:26:46.197Z,67.30
2018-06-22T11:29:14.354Z,67.70
2018-06-22T11:31:42.536Z,67.50
2018-06-22T11:34:10.907Z,67.80
2018-06-22T11:36:39.041Z,68.30
2018-06-22T11:39:09.147Z,67.80
2018-06-22T11:41:37.744Z,67.50
2018-06-22T11:44:05.896Z,68.00
2018-06-22T11:46:34.076Z,68.50
2018-06-22T11:49:02.228Z,68.70
2018-06-22T11:51:30.461Z,69.00
2018-06-22T11:53:58.633Z,68.90
2018-06-22T11:56:26.777Z,68.50
2018-06-22T11:58:54.961Z,69.10
2018-06-22T12:01:23.097Z,68.70
2018-06-22T12:03:51.245Z,69.00
2018-06-22T12:06:19.508Z,69.60
2018-06-22T12:08:47.665Z,69.50
2018-06-22T12:11:15.836Z,69.80
2018-06-22T12:13:44.004Z,69.90
2018-06-22T12:16:12.372Z,70.30
2018-06-22T12:18:40.740Z,70.30
2018-06-22T12:21:09.109Z,69.80
2018-06-22T12:23:37.274Z,70.10
2018-06-22T12:26:05.720Z,70.50
2018-06-22T12:28:33.996Z,70.80
2018-06-22T12:31:02.147Z,71.30
2018-06-22T12:33:30.289Z,70.90
2018-06-22T12:35:58.437Z,71.10
2018-06-22T12:38:26.619Z,71.00
2018-06-22T12:40:54.901Z,71.10
2018-06-22T12:43:23.107Z,70.80
2018-06-22T12:45:51.314Z,71.60
2018-06-22T12:48:19.462Z,72.20
2018-06-22T12:50:47.644Z,72.70
2018-06-22T12:53:15.803Z,72.80
2018-06-22T12:55:44.371Z,73.20
2018-06-22T12:58:12.511Z,73.30
2018-06-22T13:00:40.682Z,73.20
2018-06-22T13:03:08.825Z,73.10
2018-06-22T13:05:37.053Z,71.70
2018-06-22T13:08:05.576Z,71.30
2018-06-22T13:10:33.744Z,70.60
2018-06-22T13:13:01.886Z,71.00
2018-06-22T13:15:30.078Z,71.70
2018-06-22T13:17:58.327Z,72.50
2018-06-22T13:20:26.510Z,71.90
2018-06-22T13:22:54.648Z,71.90
2018-06-22T13:25:22.816Z,72.10
2018-06-22T13:27:51.123Z,72.10
2018-06-22T13:30:19.272Z,71.60
2018-06-22T13:32:47.553Z,70.60
2018-06-22T13:35:15.865Z,70.70
2018-06-22T13:37:44.006Z,71.20
2018-06-22T13:40:13.146Z,71.50
2018-06-22T13:42:41.335Z,71.60
2018-06-22T13:45:09.496Z,71.60
2018-06-22T13:47:37.898Z,71.10
2018-06-22T13:50:06.068Z,71.70
2018-06-22T13:52:34.305Z,72.30
2018-06-22T13:55:02.937Z,72.50
2018-06-22T13:57:31.119Z,72.40
2018-06-22T13:59:59.491Z,72.70
2018-06-22T14:02:27.673Z,73.20
2018-06-22T14:05:01.331Z,73.10
2018-06-22T14:07:29.476Z,73.20
2018-06-22T14:09:57.734Z,73.70
2018-06-22T14:12:25.884Z,73.10
2018-06-22T14:14:54.054Z,73.10
2018-06-22T14:17:22.395Z,73.00
2018-06-22T14:19:50.609Z,73.10
2018-06-22T14:22:18.825Z,73.40
2018-06-22T14:24:46.964Z,73.90
2018-06-22T14:27:15.173Z,74.60
2018-06-22T14:29:43.345Z,74.80
2018-06-22T14:32:11.621Z,75.40
2018-06-22T14:34:39.763Z,75.90
2018-06-22T14:37:07.924Z,75.90
2018-06-22T14:39:36.220Z,76.40
2018-06-22T14:42:04.372Z,75.90
2018-06-22T14:44:32.699Z,75.90
2018-06-22T14:47:00.910Z,75.90
2018-06-22T14:49:29.092Z,76.40
2018-06-22T14:52:00.240Z,75.30
2018-06-22T14:54:34.127Z,75.30
2018-06-22T14:57:07.820Z,75.80
2018-06-22T14:59:41.462Z,76.00
2018-06-22T15:02:15.041Z,75.80
2018-06-22T15:04:48.711Z,75.40
2018-06-22T15:07:22.202Z,75.80
2018-06-22T15:09:50.504Z,76.30
2018-06-22T15:12:19.219Z,76.30
2018-06-22T15:14:47.909Z,76.40
2018-06-22T15:17:16.244Z,75.50
2018-06-22T15:19:45.072Z,75.60
2018-06-22T15:22:13.958Z,75.40
2018-06-22T15:24:42.104Z,75.60
2018-06-22T15:27:13.010Z,75.90
2018-06-22T15:29:41.395Z,76.30
2018-06-22T15:32:09.584Z,75.20
2018-06-22T15:34:43.076Z,74.50
2018-06-22T15:37:16.665Z,74.30
2018-06-22T15:39:50.276Z,73.70
2018-06-22T15:42:23.792Z,72.50
2018-06-22T15:44:57.384Z,71.50
2018-06-22T15:47:30.826Z,71.20
2018-06-22T15:50:04.364Z,71.00
2018-06-22T15:52:38.091Z,71.40
2018-06-22T15:55:12.257Z,73.10
2018-06-22T15:57:40.505Z,74.30
2018-06-22T16:00:10.661Z,75.10
2018-06-22T16:02:44.085Z,75.90
2018-06-22T16:05:12.280Z,76.30
2018-06-22T16:07:40.696Z,76.60
2018-06-22T16:10:08.960Z,77.00
2018-06-22T16:12:38.465Z,75.10
2018-06-22T16:15:17.800Z,75.50
2018-06-22T16:17:51.988Z,74.90
2018-06-22T16:20:25.448Z,74.00
2018-06-22T16:22:59.153Z,73.80
2018-06-22T16:25:32.606Z,74.00
2018-06-22T16:28:02.228Z,75.20
2018-06-22T16:30:30.618Z,76.30
2018-06-22T16:32:58.763Z,77.30
2018-06-22T16:35:27.159Z,78.40
2018-06-22T16:37:55.543Z,78.70
2018-06-22T16:40:24.045Z,79.90
2018-06-22T16:42:52.222Z,80.20
2018-06-22T16:45:20.361Z,80.40
2018-06-22T16:47:48.574Z,80.90
2018-06-22T16:50:16.751Z,79.80
2018-06-22T16:52:45.074Z,78.90
2018-06-22T16:55:13.539Z,78.40
2018-06-22T16:57:41.889Z,78.50
2018-06-22T17:00:10.456Z,78.40
2018-06-22T17:02:38.668Z,79.40
2018-06-22T17:05:07.361Z,78.40
2018-06-22T17:07:41.133Z,78.40
2018-06-22T17:10:14.579Z,78.40
2018-06-22T17:12:48.197Z,78.80
2018-06-22T17:15:21.788Z,79.60
2018-06-22T17:20:23.421Z,80.10
2018-06-22T17:22:51.580Z,79.20
2018-06-22T17:25:19.795Z,75.00
2018-06-22T17:27:49.016Z,69.00
2018-06-22T17:30:18.303Z,64.30
2018-06-22T17:32:48.215Z,62.20
2018-06-22T17:35:17.533Z,61.10
2018-06-22T17:37:46.810Z,60.80
2018-06-22T17:40:16.775Z,59.00
2018-06-22T17:42:46.034Z,58.80
2018-06-22T17:45:15.294Z,59.40
2018-06-22T17:47:44.529Z,61.50
2018-06-22T17:50:18.951Z,64.20
2018-06-22T17:52:48.384Z,67.40
2018-06-22T17:55:18.289Z,70.10
2018-06-22T17:57:47.524Z,72.20
2018-06-22T18:00:22.474Z,73.90
2018-06-22T18:02:56.824Z,74.50
2018-06-22T18:05:32.439Z,74.80
2018-06-22T18:08:03.263Z,74.90
2018-06-22T18:12:42.422Z,74.60
2018-06-22T18:17:41.106Z,75.60
2018-06-22T18:20:11.239Z,75.80
2018-06-22T18:22:40.646Z,76.20
2018-06-22T18:25:09.919Z,76.70
2018-06-22T18:27:39.815Z,77.20
2018-06-22T18:30:13.944Z,78.00
2018-06-22T18:32:43.027Z,79.10
2018-06-22T18:37:43.316Z,80.80
2018-06-22T18:40:14.628Z,81.40
2018-06-22T18:42:43.275Z,82.00
2018-06-22T18:45:12.242Z,83.20
2018-06-22T18:47:42.085Z,82.50
2018-06-22T18:50:11.293Z,82.80
2018-06-22T18:52:44.945Z,82.70
2018-06-22T18:55:21.046Z,83.10
2018-06-22T18:57:56.199Z,82.80
2018-06-22T19:00:31.342Z,82.60
2018-06-22T19:03:04.980Z,82.50
2018-06-22T19:05:35.219Z,82.50
2018-06-22T19:08:03.904Z,82.70
2018-06-22T19:10:33.223Z,82.90
2018-06-22T19:13:02.122Z,83.10
2018-06-22T19:15:32.714Z,83.00
2018-06-22T19:18:01.465Z,82.90
2018-06-22T19:20:30.910Z,83.10
2018-06-22T19:22:59.107Z,83.50
2018-06-22T19:25:28.709Z,84.10
2018-06-22T19:27:58.071Z,84.90
2018-06-22T19:30:27.551Z,85.50
2018-06-22T19:32:56.998Z,86.40
2018-06-22T19:35:26.143Z,86.60
2018-06-22T19:37:56.099Z,87.30
2018-06-22T19:40:26.236Z,87.60
2018-06-22T19:42:55.479Z,87.90
2018-06-22T19:45:30.506Z,88.20
2018-06-22T19:48:04.587Z,88.60
2018-06-22T19:52:42.918Z,89.00
2018-06-22T19:55:12.026Z,89.40
2018-06-22T19:57:40.256Z,89.90
2018-06-22T20:00:08.472Z,90.00
2018-06-22T20:02:38.220Z,90.00
2018-06-22T20:05:07.233Z,90.10
2018-06-22T20:07:36.420Z,90.20
2018-06-22T20:10:06.251Z,90.20
2018-06-22T20:12:35.579Z,90.30
2018-06-22T20:15:04.754Z,90.30
2018-06-22T20:17:33.994Z,90.40
2018-06-22T20:20:02.156Z,90.40
2018-06-22T20:22:30.360Z,90.50
2018-06-22T20:25:03.939Z,90.60
2018-06-22T20:27:32.108Z,90.80
2018-06-22T20:30:00.368Z,91.10
2018-06-22T20:32:28.568Z,91.20
2018-06-22T20:35:02.098Z,91.30
2018-06-22T20:37:36.261Z,91.50
2018-06-22T20:42:16.998Z,91.60
2018-06-22T20:44:50.837Z,91.70
2018-06-22T20:47:24.342Z,92.00
2018-06-22T20:49:57.914Z,92.00
2018-06-22T20:52:26.417Z,92.00
2018-06-22T20:54:55.363Z,92.00
2018-06-22T20:57:23.547Z,91.90
2018-06-22T20:59:51.735Z,91.90
2018-06-22T21:02:19.884Z,91.90
2018-06-22T21:04:48.374Z,92.00
2018-06-22T21:07:16.523Z,92.10
2018-06-22T21:09:44.756Z,92.10
2018-06-22T21:12:12.906Z,92.20
2018-06-22T21:14:41.231Z,92.30
2018-06-22T21:17:09.396Z,92.50
2018-06-22T21:19:37.544Z,92.50
2018-06-22T21:22:08.803Z,92.60
2018-06-22T21:24:37.180Z,92.70
2018-06-22T21:27:11.264Z,92.80
2018-06-22T21:29:44.818Z,93.10
2018-06-22T21:32:18.270Z,93.10
2018-06-22T21:34:51.889Z,93.20
2018-06-22T21:37:25.460Z,93.20
2018-06-22T21:40:03.521Z,93.20
2018-06-22T21:42:34.722Z,93.20
2018-06-22T21:45:02.950Z,93.30
2018-06-22T21:47:31.117Z,93.30
2018-06-22T21:49:59.318Z,93.30
2018-06-22T21:52:27.592Z,93.30
2018-06-22T21:54:55.807Z,93.40
2018-06-22T21:57:23.961Z,93.40
2018-06-22T21:59:52.140Z,93.50
2018-06-22T22:02:20.352Z,93.60
2018-06-22T22:04:49.553Z,93.60
2018-06-22T22:07:17.974Z,93.70
2018-06-22T22:09:46.128Z,93.80
2018-06-22T22:12:14.358Z,93.80
2018-06-22T22:14:42.496Z,94.00
2018-06-22T22:17:10.655Z,94.00
2018-06-22T22:19:39.237Z,94.10
2018-06-22T22:22:07.848Z,94.20
2018-06-22T22:24:36.007Z,94.30
2018-06-22T22:27:04.178Z,94.40
2018-06-22T22:29:32.321Z,94.50
2018-06-22T22:32:00.541Z,94.50
2018-06-22T22:34:28.794Z,94.70
2018-06-22T22:36:56.959Z,94.70
2018-06-22T22:39:25.128Z,94.80
2018-06-22T22:41:53.313Z,94.90
2018-06-22T22:44:21.449Z,95.00
2018-06-22T22:46:49.605Z,95.20
2018-06-22T22:49:17.803Z,95.20
2018-06-22T22:51:45.960Z,95.40
2018-06-22T22:54:14.197Z,95.50
2018-06-22T22:56:42.373Z,95.60
2018-06-22T22:59:10.515Z,95.80
2018-06-22T23:04:06.637Z,96.00
2018-06-22T23:06:34.816Z,96.60
2018-06-22T23:09:03.088Z,96.30
2018-06-22T23:11:31.301Z,96.00
2018-06-22T23:13:59.483Z,96.40
2018-06-22T23:16:27.639Z,96.50
2018-06-22T23:18:55.814Z,96.60
2018-06-22T23:21:24.041Z,97.10
2018-06-22T23:23:52.196Z,96.80
2018-06-22T23:26:20.381Z,96.90
2018-06-22T23:28:48.552Z,96.90
2018-06-22T23:31:16.836Z,96.90
2018-06-22T23:33:45.109Z,96.90
2018-06-22T23:36:13.303Z,96.90
2018-06-22T23:38:41.472Z,97.00
2018-06-22T23:41:09.662Z,97.10
2018-06-22T23:43:37.818Z,97.30
2018-06-22T23:46:06.019Z,97.10
2018-06-22T23:48:34.191Z,97.20
2018-06-22T23:51:02.341Z,97.30
2018-06-22T23:53:30.538Z,97.30
2018-06-22T23:55:58.701Z,97.40
2018-06-22T23:58:26.920Z,97.50
